Flight Track Log - Related Links

Times and Time Zones

All times are in EDT time to prevent confusion due to time zone crossing. See the UAL395 flight status page for this flight to view local times or setup timezone preferences in your user account.

Time Position Orientation Groundspeed Altitude Reporting Facility
EDT Latitude Longitude Course Direction KTS MPH feet Rate Location/Type
Thu 08:24:31 AM 29.9531 -95.3422 276° West 180 207 900  Level Houston Center
Thu 08:25:56 AM 29.9267 -95.4200 249° West 240 276 3,500 1,527 Climbing Houston Center
Thu 08:26:21 AM 29.9303 -95.4408 281° West 237 273 3,700 536 Climbing Houston Center
Thu 08:26:52 AM 29.9400 -95.4956 282° West 263 303 4,000 1,967 Climbing Houston Center
Thu 08:27:00 AM 30.0235 -95.6911 276° West  Level FlightAware Approximate
Thu 08:27:22 AM 29.9494 -95.5353 285° West 251 289 5,700  Level Houston Center
Thu 08:28:00 AM 30.0343 -95.8111 276° West  Level FlightAware Approximate
Thu 08:28:24 AM 29.9675 -95.6139 285° West 254 292 8,600  Level Houston Center
Thu 08:29:00 AM 30.0443 -95.9311 276° West  Level FlightAware Approximate
Thu 08:29:25 AM 29.9872 -95.7011 285° West 276 318 10,500  Level Houston Center
Thu 08:30:27 AM 30.0122 -95.8086 285° West 346 398 12,200 2,293 Climbing Houston Center
Thu 08:31:28 AM 30.0350 -95.9175 284° West 350 403 15,200 2,488 Climbing Houston Center
Thu 08:32:30 AM 30.0603 -96.0250 285° West 359 413 17,300 2,098 Climbing Houston Center
Thu 08:33:31 AM 30.0878 -96.1700 282° West 384 442 19,500 2,049 Climbing Houston Center
Thu 08:34:33 AM 30.1069 -96.2961 280° West 398 458 21,500 1,790 Climbing Houston Center
Thu 08:35:35 AM 30.1261 -96.4258 280° West 410 472 23,200 1,659 Climbing Houston Center
Thu 08:36:36 AM 30.1497 -96.5614 281° West 422 486 24,900 1,610 Climbing Houston Center
Thu 08:37:38 AM 30.1800 -96.6992 284° West 435 501 26,500 1,512 Climbing Houston Center
Thu 08:38:39 AM 30.2122 -96.8386 285° West 442 509 28,000 2,049 Climbing Houston Center
Thu 08:39:41 AM 30.2433 -96.9764 285° West 435 501 30,700 1,902 Climbing Houston Center
Thu 08:40:42 AM 30.2719 -97.1083 284° West 420 483 31,900 829 Climbing Houston Center
Thu 08:41:44 AM 30.3031 -97.2456 285° West 431 496 32,400 878 Climbing Houston Center
Thu 08:42:45 AM 30.3331 -97.3875 284° West 445 512 33,700 780 Climbing Houston Center
Thu 08:43:47 AM 30.3650 -97.5292 285° West 447 514 34,000 146 Climbing Houston Center
Thu 08:44:48 AM 30.4011 -97.6936 284° West 446 513 34,000  Level Houston Center
Thu 08:45:50 AM 30.4317 -97.8339 284° West 443 510 34,000  Level Houston Center
Thu 08:46:51 AM 30.4619 -97.9733 284° West 442 509 34,000  Level Houston Center
Thu 08:47:53 AM 30.4917 -98.1133 284° West 442 509 34,000  Level Houston Center
Thu 08:48:54 AM 30.5208 -98.2525 284° West 439 505 34,000  Level Houston Center
Thu 08:49:56 AM 30.5511 -98.3906 284° West 437 503 34,000  Level Houston Center
Thu 08:50:57 AM 30.5783 -98.5283 283° West 435 501 34,000  Level Houston Center
Thu 08:51:59 AM 30.6075 -98.6653 284° West 433 498 34,000  Level Houston Center
Thu 08:53:01 AM 30.6364 -98.8017 284° West 432 497 34,000  Level Houston Center
Thu 08:54:02 AM 30.6647 -98.9375 284° West 429 494 34,000  Level Houston Center
Thu 08:55:04 AM 30.6919 -99.0764 283° West 436 502 34,000 -49 Level Houston Center
Thu 08:56:05 AM 30.7217 -99.2200 284° West 438 504 33,900  Descending Houston Center
Thu 08:57:07 AM 30.7494 -99.3578 283° West 440 506 34,000 732 Climbing Houston Center
Thu 08:58:08 AM 30.7789 -99.4953 284° West 440 506 35,400 976 Climbing Houston Center
Thu 08:59:10 AM 30.8061 -99.6308 283° West 436 502 36,000 244 Climbing Houston Center
Thu 09:00:11 AM 30.8383 -99.7928 283° West 432 497 35,900 -49 Descending Houston Center
Thu 09:01:13 AM 30.8653 -99.9294 283° West 434 499 35,900  Level Houston Center
Thu 09:02:15 AM 30.8919 -100.0658 283° West 435 501 35,900 49 Level Houston Center
Thu 09:03:16 AM 30.9203 -100.2025 284° West 431 496 36,000 49 Climbing Houston Center
Thu 09:04:18 AM 30.9469 -100.3375 283° West 432 497 36,000 -49 Level Houston Center
Thu 09:05:19 AM 30.9722 -100.4758 282° West 453 521 35,900  Descending Houston Center
Thu 09:06:21 AM 31.0042 -100.6369 283° West 434 499 36,000  Climbing Houston Center
Thu 09:07:23 AM 31.0289 -100.7731 282° West 446 513 35,900 -49 Descending Houston Center
Thu 09:08:24 AM 31.0553 -100.9056 283° West 428 493 35,900 49 Level Houston Center
Thu 09:09:26 AM 31.0803 -101.0419 282° West 434 499 36,000 49 Climbing Houston Center
Thu 09:10:27 AM 31.1083 -101.1733 284° West 431 496 36,000  Level Houston Center
Thu 09:11:29 AM 31.1331 -101.3081 282° West 426 490 36,000 -48 Level Houston Center
Thu 09:12:31 AM 31.1586 -101.4483 282° West 427 491 35,900  Descending Houston Center
Thu 09:13:32 AM 31.1833 -101.5811 282° West 422 486 36,000  Climbing Houston Center
Thu 09:14:34 AM 31.2119 -101.7428 282° West 424 488 35,900 -48 Descending Houston Center
Thu 09:15:36 AM 31.2358 -101.8728 282° West 416 479 35,900 47 Level Houston Center
Thu 09:16:42 AM 31.2592 -102.0222 280° West 427 491 36,000 48 Climbing Albuquerque Center
Thu 09:17:42 AM 31.2839 -102.1525 283° West 416 479 36,000  Level Albuquerque Center
Thu 09:18:43 AM 31.3081 -102.2825 282° West 412 474 36,000  Level Albuquerque Center
Thu 09:19:44 AM 31.3311 -102.4147 282° West 413 475 36,000 -49 Level Albuquerque Center
Thu 09:20:45 AM 31.3531 -102.5442 281° West 411 473 35,900  Descending Albuquerque Center
Thu 09:21:46 AM 31.3756 -102.6733 282° West 408 470 36,000  Climbing Albuquerque Center
Thu 09:22:47 AM 31.3986 -102.8039 282° West 410 472 35,900  Descending Albuquerque Center
Thu 09:23:48 AM 31.4222 -102.9361 282° West 413 475 36,000  Climbing Albuquerque Center
Thu 09:24:49 AM 31.4450 -103.0686 281° West 416 479 35,900  Descending Albuquerque Center
Thu 09:25:50 AM 31.4675 -103.1989 281° West 411 473 36,000 49 Climbing Albuquerque Center
Thu 09:26:51 AM 31.4883 -103.3311 281° West 412 474 36,000 -49 Level Albuquerque Center
Thu 09:27:52 AM 31.5144 -103.4897 281° West 414 476 35,900 -49 Descending Albuquerque Center
Thu 09:28:53 AM 31.5392 -103.6236 282° West 418 481 35,900  Level Albuquerque Center
Thu 09:29:54 AM 31.5594 -103.7528 280° West 409 471 35,900 49 Level Albuquerque Center
Thu 09:30:55 AM 31.5767 -103.8656 280° West 410 472 36,000 49 Climbing Albuquerque Center
Thu 09:31:56 AM 31.6039 -104.0233 281° West 413 475 36,000  Level Albuquerque Center
Thu 09:32:57 AM 31.6261 -104.1550 281° West 413 475 36,000  Level Albuquerque Center
Thu 09:33:58 AM 31.6472 -104.2861 281° West 412 474 36,000  Level Albuquerque Center
Thu 09:34:59 AM 31.6694 -104.4175 281° West 412 474 36,000 -49 Level Albuquerque Center
Thu 09:36:00 AM 31.6894 -104.5469 280° West 407 468 35,900 -49 Descending Albuquerque Center
Thu 09:37:01 AM 31.7108 -104.6783 281° West 410 472 35,900 49 Level Albuquerque Center
Thu 09:38:02 AM 31.7314 -104.8089 281° West 410 472 36,000 49 Climbing Albuquerque Center
Thu 09:39:03 AM 31.7519 -104.9389 281° West 408 470 36,000 -49 Level Albuquerque Center
Thu 09:40:04 AM 31.7719 -105.0683 280° West 406 467 35,900 -49 Descending Albuquerque Center
Thu 09:41:05 AM 31.7964 -105.2239 281° West 405 466 35,900  Level Albuquerque Center
Thu 09:42:06 AM 31.8161 -105.3544 280° West 407 468 35,900 49 Level Albuquerque Center
Thu 09:43:07 AM 31.8361 -105.4819 280° West 401 461 36,000 49 Climbing Albuquerque Center
Thu 09:44:09 AM 31.8550 -105.6108 280° West 402 463 36,000  Level Albuquerque Center
Thu 09:45:10 AM 31.8744 -105.7394 280° West 401 461 36,000  Level Albuquerque Center
Thu 09:46:11 AM 31.8931 -105.8683 280° West 401 461 36,000 -49 Level Albuquerque Center
Thu 09:47:12 AM 31.9150 -106.0144 280° West 401 461 35,900 -49 Descending Albuquerque Center
Thu 09:48:13 AM 31.9339 -106.1450 280° West 404 465 35,900 49 Level Albuquerque Center
Thu 09:49:15 AM 31.9544 -106.2731 281° West 400 460 36,000 49 Climbing Albuquerque Center
Thu 09:50:16 AM 31.9844 -106.4000 286° West 403 464 36,000  Level Albuquerque Center
Thu 09:51:17 AM 32.0158 -106.5253 286° West 399 459 36,000  Level Albuquerque Center
Thu 09:52:18 AM 32.0472 -106.6511 286° West 400 460 36,000  Level Albuquerque Center
Thu 09:53:19 AM 32.0778 -106.7764 286° West 398 458 36,000  Level Albuquerque Center
Thu 09:54:21 AM 32.1092 -106.9019 286° West 398 458 36,000  Level Albuquerque Center
Thu 09:55:22 AM 32.1397 -107.0289 286° West 399 459 36,000  Level Albuquerque Center
Thu 09:56:23 AM 32.1914 -107.1667 294° West 390 449 36,000  Level Albuquerque Center
Thu 09:57:24 AM 32.2464 -107.2814 300° West 402 463 36,000  Level Albuquerque Center
Thu 09:58:26 AM 32.3036 -107.3919 302° West 398 458 36,000  Level Albuquerque Center
Thu 09:59:27 AM 32.3614 -107.5019 302° West 398 458 36,000  Level Albuquerque Center
Thu 10:00:28 AM 32.4128 -107.6000 302° West 395 455 36,000 -49 Level Albuquerque Center
Thu 10:01:29 AM 32.4789 -107.7369 300° West 397 457 35,900  Descending Albuquerque Center
Thu 10:02:31 AM 32.5281 -107.8339 301° West 394 453 36,000 49 Climbing Albuquerque Center
Thu 10:03:32 AM 32.5833 -107.9439 301° West 393 452 36,000  Level Albuquerque Center
Thu 10:04:33 AM 32.6497 -108.0767 301° West 393 452 36,000  Level Albuquerque Center
Thu 10:05:35 AM 32.7044 -108.1864 301° West 391 450 36,000  Level Albuquerque Center
Thu 10:06:36 AM 32.7583 -108.2969 300° West 391 450 36,000  Level Albuquerque Center
Thu 10:07:38 AM 32.8125 -108.4058 301° West 388 447 36,000  Level Albuquerque Center
Thu 10:08:39 AM 32.8667 -108.5150 301° West 387 445 36,000  Level Albuquerque Center
Thu 10:09:40 AM 32.9206 -108.6231 301° West 385 443 36,000  Level Albuquerque Center
Thu 10:10:42 AM 32.9847 -108.7536 300° West 386 444 36,000  Level Albuquerque Center
Thu 10:11:43 AM 33.0389 -108.8672 300° West 389 448 36,000  Level Albuquerque Center
Thu 10:12:45 AM 33.0919 -108.9797 299° West 388 447 36,000 -49 Level Albuquerque Center
Thu 10:13:46 AM 33.1467 -109.0903 301° West 388 447 35,900  Descending Albuquerque Center
Thu 10:14:48 AM 33.2050 -109.2114 300° West 386 444 36,000 49 Climbing Albuquerque Center
Thu 10:15:49 AM 33.2572 -109.3214 300° West 385 443 36,000  Level Albuquerque Center
Thu 10:16:51 AM 33.3103 -109.4314 300° West 384 442 36,000  Level Albuquerque Center
Thu 10:17:53 AM 33.3631 -109.5419 300° West 386 444 36,000  Level Albuquerque Center
Thu 10:18:54 AM 33.4147 -109.6528 299° West 385 443 36,000  Level Albuquerque Center
Thu 10:19:56 AM 33.4678 -109.7642 300° West 387 445 36,000  Level Albuquerque Center
Thu 10:20:57 AM 33.5308 -109.8972 300° West 386 444 36,000  Level Albuquerque Center
Thu 10:21:59 AM 33.5833 -110.0083 300° West 387 445 36,000  Level Albuquerque Center
Thu 10:23:01 AM 33.6358 -110.1242 299° West 395 455 36,000  Level Albuquerque Center
Thu 10:24:02 AM 33.6878 -110.2361 299° West 391 450 36,000  Level Albuquerque Center
Thu 10:25:04 AM 33.7414 -110.3492 300° West 392 451 36,000  Level Albuquerque Center
Thu 10:26:06 AM 33.8003 -110.4772 299° West 391 450 36,000  Level Albuquerque Center
Thu 10:27:07 AM 33.8531 -110.5908 299° West 390 449 36,000  Level Albuquerque Center
Thu 10:28:09 AM 33.9053 -110.7058 299° West 393 452 36,000  Level Albuquerque Center
Thu 10:29:11 AM 33.9586 -110.8203 299° West 393 452 36,000  Level Albuquerque Center
Thu 10:30:13 AM 34.0111 -110.9378 298° West 397 457 36,000  Level Albuquerque Center
Thu 10:31:14 AM 34.0753 -111.0775 299° West 399 459 36,000  Level Albuquerque Center
Thu 10:32:16 AM 34.1281 -111.1950 299° West 400 460 36,000  Level Albuquerque Center
Thu 10:33:18 AM 34.1808 -111.3119 299° West 400 460 36,000  Level Albuquerque Center
Thu 10:34:20 AM 34.2339 -111.4283 299° West 399 459 36,000  Level Albuquerque Center
Thu 10:35:22 AM 34.2861 -111.5447 299° West 398 458 36,000  Level Albuquerque Center
Thu 10:36:24 AM 34.3497 -111.6850 299° West 401 461 36,000  Level Albuquerque Center
Thu 10:37:26 AM 34.4025 -111.8028 299° West 401 461 36,000  Level Albuquerque Center
Thu 10:38:28 AM 34.4550 -111.9214 298° West 403 464 36,000  Level Albuquerque Center
Thu 10:39:30 AM 34.5078 -112.0414 298° West 405 466 36,000  Level Albuquerque Center
Thu 10:40:31 AM 34.5600 -112.1600 298° West 403 464 36,000  Level Albuquerque Center
Thu 10:41:33 AM 34.6231 -112.3033 298° West 403 464 36,000  Level Albuquerque Center
Thu 10:42:36 AM 34.6775 -112.4256 298° West 407 468 36,000  Level Albuquerque Center
Thu 10:43:37 AM 34.7289 -112.5481 297° West 408 470 36,000  Level Albuquerque Center
Thu 10:44:39 AM 34.7783 -112.6733 296° West 409 471 36,000 -387 Level Albuquerque Center
Thu 10:45:41 AM 34.8267 -112.7992 295° West 409 471 35,200 -1,403 Descending Albuquerque Center
Thu 10:46:43 AM 34.8742 -112.9239 295° West 408 470 33,100 -2,016 Descending Albuquerque Center
Thu 10:47:46 AM 34.9211 -113.0478 295° West 403 464 31,000 -1,488 Descending Albuquerque Center
Thu 10:48:48 AM 34.9778 -113.1933 295° West 396 456 30,000 -488 Descending Albuquerque Center
Thu 10:49:49 AM 35.0275 -113.3214 295° West 409 471 30,000  Level Albuquerque Center
Thu 10:50:52 AM 35.0761 -113.4503 295° West 416 479 30,000 -333 Level Albuquerque Center
Thu 10:51:19 AM 35.0967 -113.5028 296° West 419 482 29,500 -1,955 Descending Los Angeles Center
Thu 10:52:21 AM 35.1542 -113.6239 300° West 412 474 27,100 -2,323 Descending Los Angeles Center
Thu 10:53:23 AM 35.2311 -113.7214 314° West 402 463 24,700 -2,419 Descending Los Angeles Center
Thu 10:54:25 AM 35.3200 -113.8375 313° West 391 450 22,100 -2,323 Descending Los Angeles Center
Thu 10:55:27 AM 35.3961 -113.9356 314° West 376 433 19,900 -2,129 Descending Los Angeles Center
Thu 10:56:29 AM 35.4619 -114.0203 314° West 366 421 17,700 -1,887 Descending Los Angeles Center
Thu 10:57:31 AM 35.5303 -114.1114 313° West 364 419 16,000 -1,790 Descending Los Angeles Center
Thu 10:58:33 AM 35.5992 -114.1986 314° West 358 412 14,000 -2,045 Descending Los Angeles Center
Thu 10:58:59 AM 35.6381 -114.2469 315° West 354 407 13,000 -1,742 Descending Los Angeles Center
Thu 10:59:35 AM 35.6675 -114.2883 311° West 345 397 12,200 -612 Descending Los Angeles Center
Thu 11:00:37 AM 35.7256 -114.3653 313° West 319 367 12,000 -97 Descending Los Angeles Center
Thu 11:01:39 AM 35.7419 -114.4664 281° West 306 352 12,000 -387 Level Los Angeles Center
Thu 11:02:41 AM 35.7592 -114.5894 280° West 304 350 11,200 -968 Descending Los Angeles Center
Thu 11:03:43 AM 35.7583 -114.6900 269° West 305 351 10,000 -581 Descending Los Angeles Center
Thu 11:04:45 AM 35.7286 -114.7883 250° West 305 351 10,000  Level Los Angeles Center
Thu 11:05:41 AM 35.7017 -114.8883 252° West 307 353 10,000 -51 Level Los Angeles Center
Thu 11:06:42 AM 35.6758 -114.9872 252° West 305 351 9,900 -462 Descending Los Angeles Center
Thu 11:07:51 AM 35.6722 -115.0906 268° West 303 349 9,000 -425 Descending Los Angeles Center
Thu 11:08:49 AM 35.6683 -115.2092 268° West 300 345 9,000 -48 Level Los Angeles Center
Thu 11:09:55 AM 35.7097 -115.2861 304° West 284 327 8,900 -689 Descending Los Angeles Center
Thu 11:10:51 AM 35.7739 -115.2886 358° North 247 284 7,600 -974 Descending Los Angeles Center
Thu 11:11:52 AM 35.8433 -115.2897 359° North 256 295 7,000 -590 Descending Los Angeles Center
Thu 11:12:53 AM 35.9039 -115.2700 15° North 213 245 6,400 -885 Descending Los Angeles Center
Thu 11:13:54 AM 35.9494 -115.2417 27° Northeast 171 197 5,200 -1,091 Descending Los Angeles Center
Thu 11:14:54 AM 35.9922 -115.2197 23° Northeast 167 192 4,200 -1,000 Descending Los Angeles Center

Login

Don't have an account? Register now (free) for customized features, flight alerts, and more!